Time;durP1;ratioP1;P1;durP2;ratioP2;P2;SDS_P1;SDS_P2;PMS_P1;PMS_P2;Temp;Humidity;BMP_temperature;BMP_pressure;BME280_temperature;BME280_humidity;BME280_pressure;Samples;Min_cycle;Max_cycle;Signal;HPM_P1;HPM_P2
2022/11/04 00:01:53;;;;;;;63.25;31.75;;;11.20;99.90;;;;;;6273781;22;20011;-85
2022/11/04 00:04:21;;;;;;;69.40;32.70;;;11.10;99.90;;;;;;6273797;22;20016;-85
2022/11/04 00:06:47;;;;;;;66.93;32.40;;;11.10;99.90;;;;;;6274017;22;20000;-86
2022/11/04 00:09:28;;;;;;;64.30;31.10;;;11.20;99.90;;;;;;6273838;22;20004;-86
2022/11/04 00:14:39;;;;;;;66.65;33.33;;;11.20;99.90;;;;;;6274243;22;19996;-87
2022/11/04 00:17:23;;;;;;;64.63;34.38;;;11.20;99.90;;;;;;6273432;22;20005;-85
2022/11/04 00:33:24;;;;;;;71.57;37.47;;;11.10;99.90;;;;;;6241419;23;20027;-79
2022/11/04 00:33:43;;;;;;;81.50;37.40;;;11.20;99.90;;;;;;6236038;23;20088;-79
2022/11/04 00:36:09;;;;;;;71.82;36.33;;;11.10;99.90;;;;;;6223489;23;20001;-78
2022/11/04 00:38:35;;;;;;;76.60;37.65;;;11.10;99.90;;;;;;6219268;23;20102;-81
2022/11/04 00:41:00;;;;;;;74.38;38.17;;;11.20;99.90;;;;;;6219695;23;19997;-80
2022/11/04 00:43:26;;;;;;;81.53;40.35;;;11.10;99.90;;;;;;6219229;23;20020;-78
2022/11/04 00:45:52;;;;;;;85.72;38.75;;;11.20;99.90;;;;;;6192731;23;20009;-79
2022/11/04 00:48:18;;;;;;;72.80;37.60;;;11.20;99.90;;;;;;6220929;23;20008;-78
2022/11/04 00:50:43;;;;;;;85.05;39.08;;;11.20;99.90;;;;;;6199515;23;20087;-80
2022/11/04 00:53:09;;;;;;;82.32;40.08;;;11.20;99.90;;;;;;6227670;23;20335;-78
2022/11/04 00:55:35;;;;;;;85.10;38.83;;;11.20;99.90;;;;;;6202573;23;20035;-78
2022/11/04 00:58:01;;;;;;;78.97;39.38;;;11.20;99.90;;;;;;6228051;23;20051;-79
2022/11/04 01:00:27;;;;;;;86.03;41.13;;;11.20;99.90;;;;;;6203758;23;20091;-78
2022/11/04 01:02:53;;;;;;;82.38;39.75;;;11.20;99.90;;;;;;6229949;23;20067;-79
2022/11/04 01:05:19;;;;;;;81.95;40.42;;;11.20;99.90;;;;;;6232778;23;19997;-78
2022/11/04 01:07:44;;;;;;;87.63;42.33;;;11.30;99.90;;;;;;6230673;23;20028;-80
2022/11/04 01:10:10;;;;;;;87.88;40.80;;;11.30;99.90;;;;;;6224063;23;20587;-79
2022/11/04 01:12:36;;;;;;;78.47;40.92;;;11.30;99.90;;;;;;6225959;23;20031;-78
2022/11/04 01:15:02;;;;;;;87.47;42.45;;;11.30;99.90;;;;;;6225550;23;20000;-79
2022/11/04 01:17:28;;;;;;;90.15;41.88;;;11.20;99.90;;;;;;6224081;23;20009;-79
2022/11/04 01:19:53;;;;;;;87.78;42.90;;;11.20;99.90;;;;;;6224216;23;20024;-79
2022/11/04 01:22:19;;;;;;;88.35;44.65;;;11.20;99.90;;;;;;6226590;23;20004;-79
2022/11/04 01:24:45;;;;;;;90.38;43.00;;;11.20;99.90;;;;;;6202290;23;20016;-79
2022/11/04 01:27:11;;;;;;;90.10;45.42;;;11.20;99.90;;;;;;6200415;23;20012;-80
2022/11/04 01:29:37;;;;;;;93.57;45.10;;;11.20;99.90;;;;;;6170406;23;20004;-79
2022/11/04 01:32:02;;;;;;;98.55;46.55;;;11.20;99.90;;;;;;6194676;23;20088;-80
2022/11/04 01:34:28;;;;;;;99.35;46.40;;;11.20;99.90;;;;;;6221113;23;20434;-79
2022/11/04 01:36:54;;;;;;;92.68;45.83;;;11.20;99.90;;;;;;6220637;23;20009;-81
2022/11/04 01:39:20;;;;;;;94.20;46.92;;;11.20;99.90;;;;;;6222833;23;20304;-78
2022/11/04 01:41:47;;;;;;;98.68;48.17;;;11.30;99.90;;;;;;6177085;23;20004;-81
2022/11/04 01:44:40;;;;;;;96.65;47.58;;;11.20;99.90;;;;;;6223295;23;20007;-80
2022/11/04 01:47:17;;;;;;;106.90;49.35;;;11.30;99.90;;;;;;6193881;23;20443;-80
2022/11/04 01:49:46;;;;;;;99.97;48.47;;;11.30;99.90;;;;;;6221399;23;20009;-78
2022/11/04 01:52:21;;;;;;;102.20;48.13;;;11.30;99.90;;;;;;6219467;23;20015;-80
2022/11/04 01:54:48;;;;;;;93.45;47.15;;;11.30;99.90;;;;;;6220192;23;20004;-79
2022/11/04 01:57:19;;;;;;;97.65;48.22;;;11.30;99.90;;;;;;6194421;23;20005;-78
2022/11/04 01:59:45;;;;;;;99.85;49.42;;;11.30;99.90;;;;;;6220429;23;20001;-78
2022/11/04 02:02:11;;;;;;;101.47;48.00;;;11.30;99.90;;;;;;6169910;23;20113;-80
2022/11/04 02:04:38;;;;;;;101.38;49.00;;;11.40;99.90;;;;;;6221392;23;20439;-79
2022/11/04 02:07:07;;;;;;;108.95;50.33;;;11.40;99.90;;;;;;6194328;23;20012;-79
2022/11/04 02:09:35;;;;;;;104.78;49.35;;;11.40;99.90;;;;;;6193102;23;20012;-80
2022/11/04 02:14:48;;;;;;;104.35;49.13;;;11.40;99.90;;;;;;6196861;23;20012;-80
2022/11/04 02:17:16;;;;;;;99.93;49.40;;;11.40;99.90;;;;;;6225993;23;20032;-78
2022/11/04 02:19:48;;;;;;;106.03;49.20;;;11.50;99.90;;;;;;6231421;23;20004;-77
2022/11/04 02:22:37;;;;;;;108.07;49.35;;;11.50;99.90;;;;;;6225699;23;20004;-78
2022/11/04 02:25:24;;;;;;;97.50;49.65;;;11.50;99.90;;;;;;6220160;23;20084;-79
2022/11/04 02:28:26;;;;;;;115.07;49.38;;;11.50;99.90;;;;;;6195157;23;20008;-77
2022/11/04 02:31:13;;;;;;;101.18;49.10;;;11.50;99.90;;;;;;6222876;23;20031;-78
2022/11/04 02:34:14;;;;;;;109.70;51.55;;;11.50;99.90;;;;;;6223392;23;20071;-79
2022/11/04 02:36:51;;;;;;;115.72;50.17;;;11.50;99.90;;;;;;6191770;23;20013;-78
2022/11/04 02:39:39;;;;;;;110.45;50.50;;;11.50;99.90;;;;;;6195244;23;20004;-79
2022/11/04 02:42:23;;;;;;;106.07;47.53;;;11.50;99.90;;;;;;6226044;23;20013;-80
2022/11/04 02:45:04;;;;;;;101.35;48.30;;;11.60;99.90;;;;;;6225036;23;20060;-78
2022/11/04 02:47:31;;;;;;;104.00;49.15;;;11.60;99.90;;;;;;6224501;23;20005;-78
2022/11/04 02:50:04;;;;;;;100.05;49.08;;;11.60;99.90;;;;;;6167726;23;20011;-78
2022/11/04 02:52:50;;;;;;;107.15;51.25;;;11.60;99.90;;;;;;6219488;23;20008;-80
2022/11/04 02:55:22;;;;;;;111.07;50.92;;;11.60;99.90;;;;;;6182548;23;20012;-79
2022/11/04 02:57:50;;;;;;;101.35;50.03;;;11.60;99.90;;;;;;6228795;23;20036;-78
2022/11/04 03:00:19;;;;;;;110.28;51.10;;;11.60;99.90;;;;;;6206395;23;20016;-78
2022/11/04 03:02:56;;;;;;;107.07;49.78;;;11.60;99.90;;;;;;6232155;23;20051;-77
2022/11/04 03:05:29;;;;;;;108.03;49.65;;;11.50;99.90;;;;;;6201093;23;20001;-79
2022/11/04 03:07:59;;;;;;;110.13;51.63;;;11.50;99.90;;;;;;6196276;23;20065;-79
2022/11/04 03:10:34;;;;;;;116.72;52.88;;;11.50;99.90;;;;;;6222328;23;20047;-79
2022/11/04 03:13:15;;;;;;;116.35;52.13;;;11.50;99.90;;;;;;6193549;23;20009;-80
2022/11/04 03:15:54;;;;;;;100.35;49.25;;;11.50;99.90;;;;;;6192788;23;20067;-79
2022/11/04 03:18:33;;;;;;;109.50;52.80;;;11.60;99.90;;;;;;6224280;23;20031;-79
2022/11/04 03:21:04;;;;;;;109.18;49.63;;;11.60;99.90;;;;;;6230339;23;20005;-79
2022/11/04 03:23:30;;;;;;;103.95;48.83;;;11.60;99.90;;;;;;6196289;23;20008;-79
2022/11/04 03:26:21;;;;;;;105.57;49.85;;;11.50;99.90;;;;;;6194427;23;20419;-78
2022/11/04 03:28:59;;;;;;;113.32;50.78;;;11.50;99.90;;;;;;6219822;23;20342;-79
2022/11/04 03:31:38;;;;;;;107.55;48.22;;;11.50;99.90;;;;;;6220467;23;20008;-79
2022/11/04 03:34:04;;;;;;;106.47;50.10;;;11.50;99.90;;;;;;6222722;23;20011;-79
2022/11/04 03:36:30;;;;;;;112.55;50.58;;;11.40;99.90;;;;;;6222296;23;20049;-79
2022/11/04 03:38:56;;;;;;;104.55;49.70;;;11.40;99.90;;;;;;6229378;23;20031;-78
2022/11/04 03:41:45;;;;;;;106.70;49.50;;;11.50;99.90;;;;;;6221544;23;20008;-78
2022/11/04 03:44:11;;;;;;;107.38;48.80;;;11.50;99.90;;;;;;6220811;23;20000;-79
2022/11/04 03:46:38;;;;;;;96.88;47.15;;;11.50;99.90;;;;;;6220702;23;20028;-79
2022/11/04 03:49:05;;;;;;;102.60;47.03;;;11.50;99.90;;;;;;6192116;23;20439;-80
2022/11/04 03:51:31;;;;;;;104.22;46.85;;;11.50;99.90;;;;;;6219481;23;19996;-79
2022/11/04 03:53:58;;;;;;;105.07;46.92;;;11.50;99.90;;;;;;6193286;23;20008;-78
2022/11/04 03:56:34;;;;;;;100.22;46.25;;;11.50;99.90;;;;;;6220760;23;20001;-80
2022/11/04 03:59:15;;;;;;;96.55;45.25;;;11.50;99.90;;;;;;6194847;23;20004;-78
2022/11/04 04:01:54;;;;;;;100.82;44.92;;;11.50;99.90;;;;;;6193630;23;20084;-79
2022/11/04 04:04:34;;;;;;;98.03;47.35;;;11.50;99.90;;;;;;6193158;23;20091;-79
2022/11/04 04:07:27;;;;;;;99.00;46.83;;;11.50;99.90;;;;;;6220121;23;20009;-79
2022/11/04 04:10:37;;;;;;;95.38;45.92;;;11.50;99.90;;;;;;6219269;23;20008;-78
2022/11/04 04:12:59;;;;;;;102.00;45.35;;;11.50;99.90;;;;;;6221512;23;20032;-79
2022/11/04 04:15:36;;;;;;;108.72;46.80;;;11.50;99.90;;;;;;6196966;23;20016;-79
2022/11/04 04:18:06;;;;;;;99.20;45.47;;;11.50;99.90;;;;;;6222586;23;20009;-79
2022/11/04 04:20:36;;;;;;;111.05;46.95;;;11.40;99.90;;;;;;6195490;23;20008;-79
2022/11/04 04:28:49;;;;;;;105.50;45.47;;;11.40;99.90;;;;;;6220950;23;20019;-79
2022/11/04 04:31:48;;;;;;;104.55;45.53;;;11.30;99.90;;;;;;6221607;23;20012;-80
2022/11/04 04:34:03;;;;;;;111.22;45.92;;;11.30;99.90;;;;;;6220264;23;20072;-78
2022/11/04 04:36:32;;;;;;;111.85;46.83;;;11.30;99.90;;;;;;6220993;23;20040;-78
2022/11/04 04:47:21;;;;;;;105.50;43.53;;;11.40;99.90;;;;;;6223667;23;19904;-79
2022/11/04 04:49:55;;;;;;;100.35;43.03;;;11.40;99.90;;;;;;6196030;23;20074;-79
2022/11/04 04:52:24;;;;;;;104.63;43.65;;;11.40;99.90;;;;;;6222188;23;20047;-80
2022/11/04 04:54:50;;;;;;;102.90;45.13;;;11.40;99.90;;;;;;6196890;23;20048;-80
2022/11/04 04:57:16;;;;;;;96.45;44.20;;;11.40;99.90;;;;;;6195695;23;20015;-80
2022/11/04 04:59:42;;;;;;;94.43;44.47;;;11.40;99.90;;;;;;6193196;23;20001;-78
2022/11/04 05:02:08;;;;;;;102.63;45.40;;;11.40;99.90;;;;;;6220312;23;20005;-78
2022/11/04 05:04:33;;;;;;;98.38;44.95;;;11.40;99.90;;;;;;6218728;23;20024;-79
2022/11/04 05:06:59;;;;;;;103.97;45.65;;;11.40;99.90;;;;;;6221575;23;20018;-80
2022/11/04 05:09:25;;;;;;;102.88;44.65;;;11.30;99.90;;;;;;6231023;22;20001;-77
2022/11/04 05:11:51;;;;;;;107.07;45.38;;;11.30;99.90;;;;;;6235998;23;20041;-78
2022/11/04 05:14:16;;;;;;;110.80;47.38;;;11.30;99.90;;;;;;6231659;23;20431;-78
2022/11/04 05:16:42;;;;;;;93.57;44.58;;;11.30;99.90;;;;;;6232775;23;20035;-78
2022/11/04 05:19:08;;;;;;;115.93;48.83;;;11.30;99.90;;;;;;6234272;23;20055;-78
2022/11/04 05:21:34;;;;;;;108.55;46.28;;;11.40;99.90;;;;;;6235241;23;20004;-78
2022/11/04 05:23:59;;;;;;;100.88;45.45;;;11.40;99.90;;;;;;6238350;23;20015;-78
2022/11/04 05:26:25;;;;;;;98.20;44.58;;;11.40;99.90;;;;;;6188206;23;20048;-79
2022/11/04 05:28:51;;;;;;;99.95;47.20;;;11.50;99.90;;;;;;6239840;23;20049;-77
2022/11/04 05:31:17;;;;;;;108.18;43.92;;;11.50;99.90;;;;;;6209334;23;20004;-79
2022/11/04 05:33:44;;;;;;;108.60;45.75;;;11.50;99.90;;;;;;6233201;22;20020;-81
2022/11/04 05:36:14;;;;;;;102.28;44.10;;;11.60;99.90;;;;;;6221906;23;20031;-78
2022/11/04 05:38:41;;;;;;;104.10;46.50;;;11.50;99.90;;;;;;6223696;23;20015;-80
2022/11/04 05:41:09;;;;;;;97.70;43.42;;;11.50;99.90;;;;;;6227822;23;20080;-77
2022/11/04 05:43:35;;;;;;;99.90;44.78;;;11.50;99.90;;;;;;6225854;23;20024;-79
2022/11/04 05:46:02;;;;;;;99.15;44.40;;;11.60;99.90;;;;;;6232953;23;20003;-76
2022/11/04 05:48:28;;;;;;;101.15;44.92;;;11.60;99.90;;;;;;6210480;23;20009;-77
2022/11/04 05:50:54;;;;;;;90.00;42.33;;;11.60;99.90;;;;;;6232857;23;20055;-79
2022/11/04 05:53:20;;;;;;;95.97;45.30;;;11.60;99.90;;;;;;6206571;23;20020;-77
2022/11/04 05:55:46;;;;;;;103.85;45.55;;;11.60;99.90;;;;;;6231447;23;20035;-77
2022/11/04 05:58:11;;;;;;;92.80;44.83;;;11.60;99.90;;;;;;6226355;23;20008;-78
2022/11/04 06:00:37;;;;;;;97.93;44.13;;;11.50;99.90;;;;;;6204867;23;20001;-77
2022/11/04 06:03:03;;;;;;;97.22;45.13;;;11.50;99.90;;;;;;6232137;23;20001;-79
2022/11/04 06:05:29;;;;;;;102.75;44.65;;;11.50;99.90;;;;;;6233544;23;19996;-77
2022/11/04 06:07:56;;;;;;;103.45;45.78;;;11.50;99.90;;;;;;6234640;23;20058;-79
2022/11/04 06:10:22;;;;;;;103.03;44.60;;;11.50;99.90;;;;;;6231479;23;20056;-79
2022/11/04 06:12:48;;;;;;;99.60;45.92;;;11.50;99.90;;;;;;6231439;23;20066;-80
2022/11/04 06:15:14;;;;;;;111.13;44.95;;;11.50;99.90;;;;;;6195669;23;20364;-78
2022/11/04 06:17:40;;;;;;;96.85;45.42;;;11.50;99.90;;;;;;6198320;23;20012;-80
2022/11/04 06:20:06;;;;;;;102.90;44.75;;;11.60;99.90;;;;;;6241697;22;20019;-87
2022/11/04 06:22:35;;;;;;;100.53;44.63;;;11.60;99.90;;;;;;6242138;23;19992;-89
2022/11/04 06:25:02;;;;;;;98.00;44.67;;;11.60;99.90;;;;;;6213256;23;20505;-88
2022/11/04 06:27:34;;;;;;;96.13;44.72;;;11.60;99.90;;;;;;6237998;23;20020;-86
2022/11/04 06:30:00;;;;;;;101.38;46.20;;;11.60;99.90;;;;;;6265464;23;20004;-91
2022/11/04 06:32:26;;;;;;;101.93;46.90;;;11.70;99.90;;;;;;6238239;23;20003;-89
2022/11/04 06:34:52;;;;;;;101.32;46.42;;;11.60;99.90;;;;;;6239980;23;20001;-88
2022/11/04 06:37:18;;;;;;;103.65;45.80;;;11.60;99.90;;;;;;6241523;23;20002;-89
2022/11/04 06:39:44;;;;;;;113.13;47.97;;;11.60;99.90;;;;;;6245047;22;20008;-89
2022/11/04 06:42:10;;;;;;;99.25;45.30;;;11.60;99.90;;;;;;6221784;22;19992;-90
2022/11/04 06:44:37;;;;;;;114.28;49.13;;;11.70;99.90;;;;;;6245889;23;20012;-90
2022/11/04 06:47:03;;;;;;;110.47;47.72;;;11.70;99.90;;;;;;6272003;22;20008;-88
2022/11/04 06:49:33;;;;;;;111.53;47.70;;;11.70;99.90;;;;;;6265821;23;20008;-90
2022/11/04 06:52:01;;;;;;;110.97;48.47;;;11.70;99.90;;;;;;6235819;23;20000;-90
2022/11/04 06:54:27;;;;;;;116.80;50.72;;;11.70;99.90;;;;;;6237160;23;20050;-89
2022/11/04 06:56:53;;;;;;;122.18;50.22;;;11.60;99.90;;;;;;6238255;23;20004;-90
2022/11/04 06:59:20;;;;;;;112.38;48.10;;;11.60;99.90;;;;;;6213340;23;20004;-91
2022/11/04 07:01:48;;;;;;;111.85;48.90;;;11.60;99.90;;;;;;6214025;23;20004;-89
2022/11/04 07:04:14;;;;;;;116.85;49.72;;;11.60;99.90;;;;;;6216608;23;20004;-90
2022/11/04 07:06:43;;;;;;;126.30;51.78;;;11.60;99.90;;;;;;6217359;23;20247;-90
2022/11/04 07:09:12;;;;;;;114.53;49.75;;;11.60;99.90;;;;;;6239733;23;20004;-90
2022/11/04 07:11:38;;;;;;;113.88;49.97;;;11.50;99.90;;;;;;6239616;23;20000;-88
2022/11/04 07:14:04;;;;;;;110.47;49.85;;;11.50;99.90;;;;;;6265518;23;20130;-86
2022/11/04 07:16:30;;;;;;;121.10;52.47;;;11.50;99.90;;;;;;6239917;23;20000;-88
2022/11/04 07:18:56;;;;;;;109.72;51.65;;;11.50;99.90;;;;;;6267401;23;20035;-88
2022/11/04 07:21:23;;;;;;;119.93;51.95;;;11.60;99.90;;;;;;6237284;23;20028;-88
2022/11/04 07:23:48;;;;;;;117.45;51.10;;;11.50;99.90;;;;;;6238422;23;20035;-89
2022/11/04 07:26:14;;;;;;;127.18;53.35;;;11.60;99.90;;;;;;6237206;23;20020;-86
2022/11/04 07:28:40;;;;;;;124.35;51.67;;;11.60;99.90;;;;;;6235126;23;19989;-90
2022/11/04 07:31:08;;;;;;;116.68;52.53;;;11.60;99.90;;;;;;6207412;23;19996;-89
2022/11/04 07:33:35;;;;;;;114.95;50.80;;;11.60;99.90;;;;;;6239522;23;19996;-87
2022/11/04 07:36:06;;;;;;;134.90;52.58;;;11.60;99.90;;;;;;6217161;23;20023;-85
2022/11/04 07:38:32;;;;;;;118.40;51.03;;;11.60;99.90;;;;;;6241952;23;20005;-88
2022/11/04 07:40:59;;;;;;;115.00;51.30;;;11.60;99.90;;;;;;6243321;23;19992;-89
2022/11/04 07:43:26;;;;;;;122.93;49.70;;;11.50;99.90;;;;;;6217228;23;20088;-88
2022/11/04 07:46:07;;;;;;;116.82;51.45;;;11.60;99.90;;;;;;6242664;23;20024;-86
2022/11/04 07:48:35;;;;;;;133.73;49.70;;;11.60;99.90;;;;;;6217889;23;20004;-88
2022/11/04 07:51:02;;;;;;;119.55;50.30;;;11.60;99.90;;;;;;6217063;23;20001;-87
2022/11/04 07:53:29;;;;;;;123.60;52.17;;;11.60;99.90;;;;;;6242086;23;20035;-87
2022/11/04 07:55:55;;;;;;;124.80;52.30;;;11.60;99.90;;;;;;6242001;23;19996;-86
2022/11/04 07:58:22;;;;;;;122.40;52.17;;;11.60;99.90;;;;;;6241399;23;20040;-87
2022/11/04 08:00:49;;;;;;;123.40;51.28;;;11.60;99.90;;;;;;6242609;23;19989;-88
2022/11/04 08:03:18;;;;;;;127.07;52.47;;;11.60;99.90;;;;;;6216688;23;19996;-88
2022/11/04 08:05:44;;;;;;;130.48;53.88;;;11.60;99.90;;;;;;6241222;23;20009;-88
2022/11/04 08:08:10;;;;;;;123.43;51.75;;;11.60;99.90;;;;;;6213888;23;20063;-87
2022/11/04 08:10:35;;;;;;;123.78;51.58;;;11.70;99.90;;;;;;6237773;23;20040;-88
2022/11/04 08:13:02;;;;;;;128.60;51.28;;;11.60;99.90;;;;;;6231588;23;20004;-88
2022/11/04 08:15:28;;;;;;;125.95;51.88;;;11.70;99.90;;;;;;6230758;23;20107;-87
2022/11/04 08:18:02;;;;;;;116.45;50.60;;;11.80;99.90;;;;;;6232355;23;20083;-90
2022/11/04 08:20:28;;;;;;;122.97;51.25;;;11.80;99.90;;;;;;6237832;23;20038;-89
2022/11/04 08:22:53;;;;;;;122.22;52.58;;;11.80;99.90;;;;;;6262533;23;19996;-87
2022/11/04 08:25:19;;;;;;;125.78;53.72;;;11.80;99.90;;;;;;6262117;23;19996;-88
2022/11/04 08:27:45;;;;;;;117.45;50.03;;;11.90;99.90;;;;;;6237399;23;20011;-87
2022/11/04 08:30:11;;;;;;;129.45;50.00;;;11.90;99.90;;;;;;6237350;23;20008;-88
2022/11/04 08:32:40;;;;;;;120.35;52.92;;;11.90;99.90;;;;;;6264218;23;20069;-88
2022/11/04 08:35:08;;;;;;;133.85;52.28;;;11.90;99.90;;;;;;6237200;23;20011;-89
2022/11/04 08:37:34;;;;;;;121.43;51.95;;;11.90;99.90;;;;;;6212842;23;20022;-88
2022/11/04 08:39:59;;;;;;;127.28;52.55;;;11.90;99.90;;;;;;6263221;23;20015;-87
2022/11/04 08:42:25;;;;;;;119.88;52.45;;;11.90;99.90;;;;;;6236682;23;20008;-89
2022/11/04 08:44:52;;;;;;;140.80;53.83;;;11.80;99.90;;;;;;6265265;23;20023;-87
2022/11/04 08:47:17;;;;;;;129.50;50.97;;;11.80;99.90;;;;;;6264360;23;20083;-87
2022/11/04 08:49:43;;;;;;;126.22;50.88;;;11.80;99.90;;;;;;6237692;23;20064;-88
2022/11/04 08:52:09;;;;;;;144.00;55.30;;;11.80;99.90;;;;;;6264672;23;20004;-88
2022/11/04 08:54:35;;;;;;;140.00;55.60;;;11.70;99.90;;;;;;6270407;23;20019;-84
2022/11/04 08:57:01;;;;;;;152.00;59.17;;;11.60;99.90;;;;;;6243667;23;20007;-85
2022/11/04 08:59:27;;;;;;;141.30;53.58;;;11.60;99.90;;;;;;6268955;23;20012;-86
2022/11/04 09:01:53;;;;;;;135.23;53.13;;;11.60;99.90;;;;;;6238461;23;20446;-86
2022/11/04 09:04:19;;;;;;;128.27;53.22;;;11.60;99.90;;;;;;6240160;23;20008;-86
2022/11/04 09:06:46;;;;;;;129.75;54.05;;;11.50;99.90;;;;;;6247028;22;20056;-84
2022/11/04 09:09:14;;;;;;;127.28;50.97;;;11.40;99.90;;;;;;6221889;22;20000;-84
2022/11/04 09:11:41;;;;;;;139.32;53.50;;;11.40;99.90;;;;;;6242940;23;20005;-88
2022/11/04 09:14:08;;;;;;;134.13;50.15;;;11.40;99.90;;;;;;6219628;22;20022;-87
2022/11/04 09:16:35;;;;;;;120.50;47.88;;;11.40;99.90;;;;;;6245262;23;19992;-89
2022/11/04 09:19:01;;;;;;;120.35;49.30;;;11.40;99.90;;;;;;6265226;23;20007;-90
2022/11/04 09:21:27;;;;;;;123.05;47.35;;;11.30;99.90;;;;;;6188893;23;20000;-86
2022/11/04 09:23:54;;;;;;;121.50;48.33;;;11.30;99.90;;;;;;6218447;23;20044;-86
2022/11/04 09:26:22;;;;;;;122.47;48.70;;;11.30;99.90;;;;;;6217408;23;19999;-85
2022/11/04 09:28:55;;;;;;;120.55;47.88;;;11.40;99.90;;;;;;6243557;23;20011;-85
2022/11/04 09:31:22;;;;;;;122.45;46.90;;;11.40;99.90;;;;;;6240809;23;20004;-88
2022/11/04 09:33:49;;;;;;;127.45;49.90;;;11.50;99.90;;;;;;6216560;23;20007;-83
2022/11/04 09:36:15;;;;;;;118.30;48.28;;;11.40;99.90;;;;;;6192639;23;20000;-84
2022/11/04 09:38:42;;;;;;;125.97;49.00;;;11.50;99.90;;;;;;6243348;23;20087;-85
2022/11/04 09:41:46;;;;;;;120.43;48.65;;;11.50;99.90;;;;;;6217524;23;19997;-85
2022/11/04 09:44:21;;;;;;;127.78;48.55;;;11.50;99.90;;;;;;6167937;23;20064;-87
2022/11/04 09:46:59;;;;;;;120.40;48.55;;;11.50;99.90;;;;;;6215420;23;20019;-88
2022/11/04 09:50:01;;;;;;;120.82;49.50;;;11.60;99.90;;;;;;6215422;23;20005;-87
2022/11/04 09:52:36;;;;;;;121.93;48.33;;;11.60;99.90;;;;;;6215991;23;20016;-89
2022/11/04 09:55:24;;;;;;;115.18;49.33;;;11.60;99.90;;;;;;6214569;23;20033;-88
2022/11/04 09:57:57;;;;;;;122.88;48.55;;;11.60;99.90;;;;;;6187296;23;20020;-89
2022/11/04 10:00:26;;;;;;;114.28;46.58;;;11.70;99.90;;;;;;6188622;23;20001;-89
2022/11/04 10:02:57;;;;;;;103.65;43.42;;;11.60;99.90;;;;;;6189913;23;20031;-88
2022/11/04 10:05:57;;;;;;;97.65;44.35;;;11.70;99.90;;;;;;6216341;23;20098;-87
2022/11/04 10:09:06;;;;;;;100.45;41.75;;;11.60;99.90;;;;;;6216192;23;20052;-89
2022/11/04 10:12:05;;;;;;;102.78;42.72;;;11.60;99.90;;;;;;6192559;23;20028;-88
2022/11/04 10:15:18;;;;;;;97.07;41.35;;;11.50;99.90;;;;;;6194535;23;20056;-87
2022/11/04 10:18:03;;;;;;;90.38;41.08;;;11.50;99.90;;;;;;6150714;23;20008;-86
2022/11/04 10:21:05;;;;;;;98.82;42.03;;;11.50;99.90;;;;;;6235535;22;20068;-89
2022/11/04 10:24:08;;;;;;;100.75;41.05;;;11.50;99.90;;;;;;6222373;22;20015;-89
2022/11/04 10:26:51;;;;;;;116.95;46.33;;;11.50;99.90;;;;;;6247089;23;20027;-90
2022/11/04 10:29:49;;;;;;;109.75;43.72;;;11.40;99.90;;;;;;6220952;23;20044;-88
2022/11/04 10:32:46;;;;;;;106.45;45.53;;;11.40;99.90;;;;;;6234380;22;20056;-86
2022/11/04 10:35:30;;;;;;;113.72;45.85;;;11.40;99.90;;;;;;6221219;22;20043;-89
2022/11/04 10:38:17;;;;;;;100.63;44.30;;;11.40;99.90;;;;;;6273372;22;20016;-90
2022/11/04 10:40:49;;;;;;;103.50;44.67;;;11.40;99.90;;;;;;6221773;23;20096;-91
2022/11/04 10:43:36;;;;;;;104.97;41.67;;;11.40;99.90;;;;;;6222458;22;19996;-90
2022/11/04 10:46:06;;;;;;;86.03;37.15;;;11.40;99.90;;;;;;6223600;22;20076;-89
2022/11/04 10:48:40;;;;;;;76.55;36.00;;;11.40;99.90;;;;;;6248963;22;20012;-90
2022/11/04 10:51:06;;;;;;;73.60;35.33;;;11.40;99.90;;;;;;6249342;22;20043;-89
2022/11/04 10:53:33;;;;;;;76.03;35.75;;;11.30;99.90;;;;;;6275692;22;20011;-89
2022/11/04 10:56:24;;;;;;;80.50;35.17;;;11.30;99.90;;;;;;6224739;22;20000;-89
2022/11/04 10:58:52;;;;;;;75.68;32.40;;;11.40;99.90;;;;;;6224026;22;20068;-88
2022/11/04 11:01:31;;;;;;;64.90;31.10;;;11.40;99.90;;;;;;6248930;22;20716;-90
2022/11/04 11:03:58;;;;;;;62.30;28.85;;;11.30;99.90;;;;;;6248680;22;19996;-89
2022/11/04 11:06:31;;;;;;;50.67;26.83;;;11.30;99.90;;;;;;6223274;22;20002;-90
2022/11/04 11:09:00;;;;;;;50.17;25.95;;;11.30;99.90;;;;;;6222892;23;20117;-89
2022/11/04 11:12:01;;;;;;;48.00;23.85;;;11.30;99.90;;;;;;6221974;23;20048;-89
2022/11/04 11:14:39;;;;;;;49.30;24.27;;;11.20;99.90;;;;;;6235810;23;20007;-89
2022/11/04 11:17:15;;;;;;;47.47;24.95;;;11.10;99.90;;;;;;6247054;22;20035;-89
2022/11/04 11:19:58;;;;;;;39.55;21.13;;;11.10;99.90;;;;;;6263284;22;20013;-89
2022/11/04 11:22:42;;;;;;;47.95;23.30;;;11.00;99.90;;;;;;6238540;23;20001;-88
2022/11/04 11:25:19;;;;;;;37.08;19.20;;;11.10;99.90;;;;;;6187592;23;20013;-87
2022/11/04 11:28:20;;;;;;;34.45;19.02;;;11.10;99.90;;;;;;6239158;23;20004;-88
2022/11/04 11:30:46;;;;;;;38.95;19.02;;;11.10;99.90;;;;;;6188099;23;20036;-88
2022/11/04 11:33:34;;;;;;;34.33;18.33;;;11.10;99.90;;;;;;6219860;23;20008;-89
2022/11/04 11:36:20;;;;;;;30.98;16.88;;;11.10;99.90;;;;;;6218169;23;20007;-87
2022/11/04 11:39:04;;;;;;;34.13;18.02;;;11.10;99.90;;;;;;6217789;23;20032;-88
2022/11/04 11:41:47;;;;;;;33.13;17.65;;;11.10;99.90;;;;;;6241603;23;19997;-89
2022/11/04 11:44:37;;;;;;;35.38;19.80;;;11.20;99.90;;;;;;6215259;23;20012;-89
2022/11/04 11:47:41;;;;;;;31.10;17.48;;;11.20;99.90;;;;;;6213128;23;20065;-90
2022/11/04 11:50:13;;;;;;;29.98;16.88;;;11.20;99.90;;;;;;6214369;23;19996;-90
2022/11/04 11:52:54;;;;;;;33.85;17.30;;;11.30;99.90;;;;;;6217970;23;20005;-89
2022/11/04 11:55:37;;;;;;;33.80;16.75;;;11.30;99.90;;;;;;6241955;23;20000;-90
2022/11/04 11:58:27;;;;;;;27.60;15.48;;;11.30;99.90;;;;;;6216352;23;20008;-89
2022/11/04 12:01:07;;;;;;;22.83;13.45;;;11.30;99.90;;;;;;6191337;23;19996;-87
2022/11/04 12:03:45;;;;;;;25.40;14.63;;;11.30;99.90;;;;;;6219998;23;20008;-88
2022/11/04 12:06:37;;;;;;;27.92;15.75;;;11.30;99.90;;;;;;6218041;23;20011;-88
2022/11/04 12:09:24;;;;;;;26.08;13.88;;;11.30;99.90;;;;;;6196021;23;20036;-89
2022/11/04 12:12:09;;;;;;;30.25;13.50;;;11.30;99.90;;;;;;6239625;23;20012;-88
2022/11/04 12:14:43;;;;;;;22.52;12.50;;;11.30;99.90;;;;;;6239643;23;20004;-91
2022/11/04 12:17:37;;;;;;;18.20;11.45;;;11.30;99.90;;;;;;6240986;23;20023;-89
2022/11/04 12:20:27;;;;;;;20.27;10.25;;;11.30;99.90;;;;;;6241111;22;20098;-80
2022/11/04 12:23:17;;;;;;;16.33;9.63;;;11.40;99.90;;;;;;6251064;22;20035;-79
2022/11/04 12:26:14;;;;;;;17.45;10.48;;;11.40;99.90;;;;;;6252878;22;20020;-78
2022/11/04 12:29:13;;;;;;;14.68;9.10;;;11.40;99.90;;;;;;6251023;23;20042;-80
2022/11/04 12:31:53;;;;;;;15.77;9.38;;;11.40;99.90;;;;;;6257541;23;20026;-79
2022/11/04 12:34:44;;;;;;;9.05;5.57;;;11.40;99.90;;;;;;6265296;22;19996;-77
2022/11/04 12:37:26;;;;;;;6.43;3.45;;;11.40;99.90;;;;;;6262866;23;20015;-78
2022/11/04 12:40:23;;;;;;;6.05;3.70;;;11.40;99.90;;;;;;6264202;22;20056;-78
2022/11/04 12:43:00;;;;;;;8.25;3.90;;;11.30;99.90;;;;;;6260348;22;20036;-79
2022/11/04 12:45:32;;;;;;;7.93;3.50;;;11.30;99.90;;;;;;6259752;22;20056;-80
2022/11/04 12:48:08;;;;;;;15.98;6.60;;;11.30;99.90;;;;;;6255461;23;20031;-77
2022/11/04 12:50:45;;;;;;;8.07;3.50;;;11.30;99.90;;;;;;6258151;22;20110;-78
2022/11/04 12:53:36;;;;;;;5.15;2.28;;;11.30;99.90;;;;;;6232724;23;20413;-80
2022/11/04 12:56:13;;;;;;;5.63;2.88;;;11.30;99.90;;;;;;6257677;22;20056;-81
2022/11/04 12:59:00;;;;;;;7.05;2.70;;;11.30;99.90;;;;;;6259127;22;20024;-78
2022/11/04 13:01:35;;;;;;;9.18;3.88;;;11.50;99.90;;;;;;6255843;23;20012;-79
2022/11/04 13:04:44;;;;;;;5.68;2.45;;;11.50;99.90;;;;;;6259005;22;20079;-80
2022/11/04 13:07:17;;;;;;;3.70;1.73;;;11.50;99.90;;;;;;6254982;23;20035;-79
2022/11/04 13:09:53;;;;;;;3.80;2.20;;;11.60;99.90;;;;;;6260248;22;20008;-77
2022/11/04 13:12:30;;;;;;;5.70;2.20;;;11.50;99.90;;;;;;6266052;22;20012;-79
2022/11/04 13:15:15;;;;;;;3.80;1.90;;;11.50;99.90;;;;;;6265728;22;20008;-77
2022/11/04 13:17:42;;;;;;;;;;;11.40;99.90;;;;;;6267556;23;20015;-77
2022/11/04 13:20:12;;;;;;;3.95;1.95;;;11.40;99.90;;;;;;6269125;22;19916;-79
2022/11/04 13:22:41;;;;;;;4.57;1.60;;;11.30;99.90;;;;;;6268329;22;20418;-77
2022/11/04 13:25:33;;;;;;;3.38;1.60;;;11.30;99.90;;;;;;6264741;22;20059;-80